Overview Statistics Trail Chart Weather Telemetry Raw packets
 

This is the latest recevied weather packets stored in our database for station/object AI5BL. If no packets are shown the sender has not sent any weather packets the latest 10 day(s).

<< 25 26 27 28 29 30 31 >>
Time Temp. Humidity Pressure Rain* Wind** Luminosity Snow
1788478740 26.67° C 90% 1015.9 hPa 4.83 mm - 20 W/m² -
1788478436 30.56° C 72% 1016.1 hPa 1.27 mm - 25 W/m² -
1788478135 32.22° C 63% 1015.8 hPa 0 mm - 31 W/m² -
1788477831 32.78° C 60% 1016 hPa 0 mm - 35 W/m² -
1788477530 32.78° C 59% 1015.9 hPa 0 mm - 45 W/m² -
1788477225 32.78° C 61% 1015.8 hPa 0 mm - 53 W/m² -
1788476920 32.78° C 61% 1015.7 hPa 0 mm - 68 W/m² -
1788476616 32.78° C 60% 1015.8 hPa 0 mm - 61 W/m² -
1788476312 32.22° C 59% 1015.6 hPa 0 mm - 49 W/m² -
1788476008 32.22° C 62% 1015.5 hPa 0 mm - 51 W/m² -
1788475704 32.22° C 62% 1015.6 hPa 0 mm - 62 W/m² -
1788475400 32.22° C 62% 1015.6 hPa 0 mm - 55 W/m² -
1788475096 32.78° C 60% 1015.5 hPa 0 mm - 56 W/m² -
1788474794 32.78° C 56% 1015.6 hPa 0 mm - 76 W/m² -
1788474489 32.78° C 53% 1015.3 hPa 0 mm - 60 W/m² -
1788474188 32.78° C 62% 1015.4 hPa 0 mm - 62 W/m² -
1788473883 32.78° C 53% 1015.3 hPa 0 mm - 63 W/m² -
1788473582 33.33° C 53% 1015.3 hPa 0 mm - 50 W/m² -
1788473281 33.33° C 53% 1015.4 hPa 0 mm - 48 W/m² -
1788472975 33.33° C 53% 1015.3 hPa 0 mm - 46 W/m² -
1788472673 33.33° C 53% 1015.1 hPa 0 mm - 47 W/m² -
1788472370 33.89° C 59% 1015 hPa 0 mm - 41 W/m² -
1788472067 34.44° C 46% 1015.2 hPa 0 mm - 39 W/m² -
1788471764 34.44° C 47% 1015.2 hPa 0 mm - 47 W/m² -
1788471458 33.89° C 51% 1015.1 hPa 0 mm - 44 W/m² -

* Rain latest hour (hover to see other rain measurements)
** Current wind speed in m/s (hover to see current wind gust speed)